Berwick, Canada
Current Conditions -  °F | °C
As of 10:25 AM on Tuesday 27 Jan 2015 (Local Time) from CYZX Reporting Station
Light Snow Light Snow  
Wind Chill:   Ceiling: 600
Heat Index: 19°   Visibility: 0.37mi
Dew Point: 18°   Wind: 29mph
Humidity: 93%   Direction: 50°NE
Pressure: 29.77"   Gusts: 39mph
Location:  45.03°N, 64.73°W
Report Text: CYZX 271425Z 05025G34KT 3/8SM -SNPL BLSN BKN006 OVC015 M07/M08 A2977 RMK SF6SC2 VIS VRB 1/4-1/2 WNDY HILL 06025G42KT SLP084
Loading
Personal Weather Stations






























Interactive Weather Map New forecast layout! Learn more

10-Day Weather Forecast

Advertisements
Track Severe Weather on mobile